Hay River Airport
CYHY : rendu visible

Aérodrome :











RETROUVEZ-NOUS SUR...

 
LOGIN :

S'inscrire | Disclaimer

   EN    FR    IT 

 









Légende :    VFR   VFR Marginal   IFR   IFR Intensif   IFR Très Intensif
Visi : 
Plafond : 
>= 8 km
>= 3000ft
5 à 8 km
1000 à 3000 ft
1500m à 5 km
500 à 1000 ft
800 à 1500m
200 à 500 ft
< 800m
< 200 ft
Symboles :   Orages  Brouillard  Fortes neiges  Fortes précipitations  Vent > 20 kt






- Altitude de l'aérodrome : 543 ft
- Code IATA : YHY


CYHY - Hay River

DERNIER METAR :
  • 210800Z 18007KT 15SM BKN240 M07/M08 A2953 RMK CI6 PRESFR SLP017

METARs EXPIRÉS :
  • 210700Z 20006KT 15SM BKN240 M06/M08 A2956 RMK CI5 SLP027
  • 210600Z 19006KT 15SM SCT230 M07/M09 A2957 RMK CI3 SLP030

TAF TAF CYHY
Valide du 21 à 06h jusqu'au 21 à 18h UTC


210541Z 2106/2118 18008KT P6SM FEW080 SCT220
PROB30 2108/2118 3/4SM BR BKN003 RMK NXT FCST BY 211200Z



MET'MAP, la Météo Aéronautique d'un coup d'oeil ! - Copyright ORBIFLY Décembre 2007 - Disclaimer

ORBIFLY MET'MAP TEAM :

Programmation & Développement : Alexandra Zaïnal
Conception & Développement : Baudouin d'Aumeries
Co-Programmation & Développement : Marc-Olivier Méhu
Soutien technique & logistique : Manuel Goepfert

Contact : metmap@orbifly.com




SOURCES & CREDITS :

   NOAA       Earth
Advisory